Time;durP1;ratioP1;P1;durP2;ratioP2;P2;SDS_P1;SDS_P2;PMS_P1;PMS_P2;Temp;Humidity;BMP_temperature;BMP_pressure;BME280_temperature;BME280_humidity;BME280_pressure;Samples;Min_cycle;Max_cycle;Signal;HPM_P1;HPM_P2
2023/06/02 00:00:20;;;;;;;5.97;5.00;;;;;;;;;;5050548;28;20232;-73
2023/06/02 00:02:51;;;;;;;7.50;5.07;;;;;;;;;;5048479;28;20201;-73
2023/06/02 00:05:16;;;;;;;6.07;4.60;;;;;;;;;;5046126;28;20216;-73
2023/06/02 00:07:41;;;;;;;9.27;5.30;;;;;;;;;;5031021;28;20205;-73
2023/06/02 00:10:06;;;;;;;6.40;4.97;;;;;;;;;;5032717;28;20236;-73
2023/06/02 00:12:32;;;;;;;9.20;5.23;;;;;;;;;;5047807;28;20184;-72
2023/06/02 00:14:57;;;;;;;6.47;4.80;;;;;;;;;;5034068;28;20185;-73
2023/06/02 00:17:22;;;;;;;11.17;5.03;;;;;;;;;;5051761;28;20217;-73
2023/06/02 00:19:47;;;;;;;5.17;4.20;;;;;;;;;;5034599;28;20245;-73
2023/06/02 00:22:13;;;;;;;6.83;4.87;;;;;;;;;;5049727;28;20189;-72
2023/06/02 00:24:42;;;;;;;8.27;4.90;;;;;;;;;;5036949;28;20181;-73
2023/06/02 00:27:08;;;;;;;5.93;4.93;;;;;;;;;;5031775;28;20247;-73
2023/06/02 00:29:33;;;;;;;7.50;4.87;;;;;;;;;;5025610;28;20276;-73
2023/06/02 00:31:58;;;;;;;5.73;5.17;;;;;;;;;;5052702;28;20267;-73
2023/06/02 00:34:24;;;;;;;5.30;4.77;;;;;;;;;;5038907;28;20189;-73
2023/06/02 00:36:49;;;;;;;5.90;4.83;;;;;;;;;;5051017;28;20200;-72
2023/06/02 00:39:14;;;;;;;6.23;5.07;;;;;;;;;;5037954;28;20187;-73
2023/06/02 00:41:39;;;;;;;6.13;5.23;;;;;;;;;;5052475;28;20209;-73
2023/06/02 00:44:05;;;;;;;6.90;4.67;;;;;;;;;;5031324;28;20193;-73
2023/06/02 00:46:30;;;;;;;6.07;5.47;;;;;;;;;;5046553;28;20192;-73
2023/06/02 00:48:55;;;;;;;8.20;5.23;;;;;;;;;;5033145;28;20247;-73
2023/06/02 00:51:20;;;;;;;8.20;6.10;;;;;;;;;;5032407;28;20200;-73
2023/06/02 00:53:46;;;;;;;7.10;6.03;;;;;;;;;;5041412;28;20177;-73
2023/06/02 00:56:13;;;;;;;6.57;5.87;;;;;;;;;;5033269;28;20291;-74
2023/06/02 00:58:38;;;;;;;5.67;4.97;;;;;;;;;;5034818;28;20193;-72
2023/06/02 01:01:08;;;;;;;5.27;4.77;;;;;;;;;;5037312;28;20188;-73
2023/06/02 01:03:34;;;;;;;8.03;5.63;;;;;;;;;;5042785;28;20199;-73
2023/06/02 01:06:02;;;;;;;6.87;5.77;;;;;;;;;;5049071;28;20179;-73
2023/06/02 01:08:28;;;;;;;5.93;5.33;;;;;;;;;;5033810;28;20176;-73
2023/06/02 01:10:53;;;;;;;7.03;5.40;;;;;;;;;;5049642;28;20234;-73
2023/06/02 01:13:19;;;;;;;6.53;5.73;;;;;;;;;;5051373;28;20184;-73
2023/06/02 01:15:47;;;;;;;6.43;5.60;;;;;;;;;;5050382;28;20187;-73
2023/06/02 01:18:14;;;;;;;7.40;5.67;;;;;;;;;;5042301;28;20254;-73
2023/06/02 01:20:44;;;;;;;7.80;5.93;;;;;;;;;;5050647;28;20168;-73
2023/06/02 01:23:17;;;;;;;7.43;5.30;;;;;;;;;;5026288;28;20198;-72
2023/06/02 01:25:42;;;;;;;8.90;5.17;;;;;;;;;;5047478;28;20182;-72
2023/06/02 01:28:08;;;;;;;8.57;5.50;;;;;;;;;;5050461;28;20177;-72
2023/06/02 01:30:33;;;;;;;6.10;5.40;;;;;;;;;;5052250;28;20171;-72
2023/06/02 01:32:58;;;;;;;7.30;5.30;;;;;;;;;;5043263;28;20186;-72
2023/06/02 01:35:26;;;;;;;7.97;5.57;;;;;;;;;;5037089;28;20331;-73
2023/06/02 01:37:54;;;;;;;7.50;5.23;;;;;;;;;;5054879;28;20203;-73
2023/06/02 01:40:20;;;;;;;5.33;4.83;;;;;;;;;;5044861;28;20172;-72
2023/06/02 01:42:46;;;;;;;6.73;4.93;;;;;;;;;;5036630;28;20189;-72
2023/06/02 01:45:11;;;;;;;6.43;4.87;;;;;;;;;;5050446;28;20180;-72
2023/06/02 01:47:36;;;;;;;5.37;4.87;;;;;;;;;;5035369;28;20175;-72
2023/06/02 01:50:03;;;;;;;8.77;4.87;;;;;;;;;;5035556;28;20189;-73
2023/06/02 01:52:28;;;;;;;6.00;4.90;;;;;;;;;;5053343;28;20174;-73
2023/06/02 01:54:53;;;;;;;6.33;5.50;;;;;;;;;;5036263;28;20201;-72
2023/06/02 01:57:18;;;;;;;6.10;5.20;;;;;;;;;;5033273;28;20285;-73
2023/06/02 01:59:44;;;;;;;8.77;5.87;;;;;;;;;;5031586;28;20176;-73
2023/06/02 02:02:09;;;;;;;7.30;4.90;;;;;;;;;;5031426;28;20240;-72
2023/06/02 02:04:34;;;;;;;8.30;4.93;;;;;;;;;;5032882;28;20206;-71
2023/06/02 02:07:01;;;;;;;6.83;5.30;;;;;;;;;;5033876;28;20187;-72
2023/06/02 02:09:27;;;;;;;6.93;5.27;;;;;;;;;;5033524;28;20171;-72
2023/06/02 02:11:52;;;;;;;10.53;5.87;;;;;;;;;;5036180;28;20185;-72
2023/06/02 02:14:19;;;;;;;6.30;5.20;;;;;;;;;;5032767;28;20173;-72
2023/06/02 02:16:49;;;;;;;6.40;4.33;;;;;;;;;;5031710;28;20214;-72
2023/06/02 02:19:16;;;;;;;6.03;4.77;;;;;;;;;;5031382;28;20174;-72
2023/06/02 02:21:41;;;;;;;6.70;4.70;;;;;;;;;;5031891;28;20186;-72
2023/06/02 02:24:07;;;;;;;5.63;4.67;;;;;;;;;;5033510;28;20175;-73
2023/06/02 02:26:32;;;;;;;12.97;5.90;;;;;;;;;;5033622;28;20174;-72
2023/06/02 02:28:57;;;;;;;5.17;4.30;;;;;;;;;;5032154;28;20265;-72
2023/06/02 02:31:22;;;;;;;7.33;4.90;;;;;;;;;;5030969;28;20177;-73
2023/06/02 02:33:48;;;;;;;7.97;5.37;;;;;;;;;;5035132;28;20179;-73
2023/06/02 02:36:13;;;;;;;7.07;4.80;;;;;;;;;;5032725;28;20214;-73
2023/06/02 02:38:38;;;;;;;7.73;4.70;;;;;;;;;;5030197;28;20296;-72
2023/06/02 02:41:03;;;;;;;5.97;4.87;;;;;;;;;;5032377;28;20269;-73
2023/06/02 02:43:29;;;;;;;5.93;4.47;;;;;;;;;;5033650;28;20201;-73
2023/06/02 02:45:54;;;;;;;6.17;4.73;;;;;;;;;;5032842;28;20193;-72
2023/06/02 02:48:19;;;;;;;5.53;4.40;;;;;;;;;;5030986;28;20193;-72
2023/06/02 02:50:44;;;;;;;5.50;4.60;;;;;;;;;;5029482;28;20210;-72
2023/06/02 02:53:11;;;;;;;7.17;5.30;;;;;;;;;;5032261;28;20171;-72
2023/06/02 02:55:37;;;;;;;5.53;4.73;;;;;;;;;;5032065;28;20221;-73
2023/06/02 02:58:02;;;;;;;6.33;5.30;;;;;;;;;;5030677;28;20225;-72
2023/06/02 03:00:27;;;;;;;6.07;4.80;;;;;;;;;;5030846;28;20271;-72
2023/06/02 03:02:54;;;;;;;7.20;5.57;;;;;;;;;;5047628;28;20207;-72
2023/06/02 03:05:20;;;;;;;6.67;4.60;;;;;;;;;;5031535;28;20181;-72
2023/06/02 03:07:46;;;;;;;6.57;5.17;;;;;;;;;;5031090;28;20190;-72
2023/06/02 03:10:11;;;;;;;8.37;5.73;;;;;;;;;;5032725;28;20186;-72
2023/06/02 03:12:36;;;;;;;6.40;4.77;;;;;;;;;;5030914;28;20208;-72
2023/06/02 03:15:02;;;;;;;8.07;5.20;;;;;;;;;;5029396;28;20312;-72
2023/06/02 03:17:27;;;;;;;6.30;4.93;;;;;;;;;;5033330;28;20240;-72
2023/06/02 03:19:54;;;;;;;7.47;5.67;;;;;;;;;;5032434;28;20174;-72
2023/06/02 03:22:20;;;;;;;6.57;5.23;;;;;;;;;;5031168;28;20193;-72
2023/06/02 03:24:45;;;;;;;8.20;5.33;;;;;;;;;;5030569;28;20182;-73
2023/06/02 03:27:13;;;;;;;6.53;5.37;;;;;;;;;;5031547;28;20660;-73
2023/06/02 03:29:38;;;;;;;7.13;5.60;;;;;;;;;;5030393;28;20177;-73
2023/06/02 03:32:07;;;;;;;8.13;5.50;;;;;;;;;;5031283;28;20192;-73
2023/06/02 03:34:33;;;;;;;9.87;5.70;;;;;;;;;;5032188;28;20263;-72
2023/06/02 03:37:01;;;;;;;5.63;4.87;;;;;;;;;;5029950;28;20295;-73
2023/06/02 03:39:26;;;;;;;9.57;6.33;;;;;;;;;;5030632;28;20188;-72
2023/06/02 03:41:51;;;;;;;8.13;5.73;;;;;;;;;;5030237;28;20181;-72
2023/06/02 03:44:17;;;;;;;9.10;6.13;;;;;;;;;;5029246;28;20246;-72
2023/06/02 03:46:42;;;;;;;7.00;5.77;;;;;;;;;;5030703;28;20180;-72
2023/06/02 03:49:08;;;;;;;9.47;6.03;;;;;;;;;;5030372;28;20180;-73
2023/06/02 03:51:33;;;;;;;10.17;6.43;;;;;;;;;;5026428;28;20177;-72
2023/06/02 03:53:58;;;;;;;9.27;6.77;;;;;;;;;;5031310;28;20180;-72
2023/06/02 03:56:23;;;;;;;7.20;6.17;;;;;;;;;;5028774;28;20227;-72
2023/06/02 03:58:49;;;;;;;8.37;6.13;;;;;;;;;;5030029;28;20188;-72
2023/06/02 04:01:17;;;;;;;9.07;6.03;;;;;;;;;;5030275;28;20209;-72
2023/06/02 04:03:43;;;;;;;8.40;6.40;;;;;;;;;;5029495;28;20245;-72
2023/06/02 04:06:08;;;;;;;7.57;6.73;;;;;;;;;;5030934;28;20184;-72
2023/06/02 04:08:34;;;;;;;7.57;6.43;;;;;;;;;;5030012;28;20172;-73
2023/06/02 04:10:59;;;;;;;8.00;6.40;;;;;;;;;;5029327;28;20222;-73
2023/06/02 04:13:24;;;;;;;12.63;6.30;;;;;;;;;;5030582;28;20207;-72
2023/06/02 04:15:50;;;;;;;8.00;6.20;;;;;;;;;;5028054;28;20184;-72
2023/06/02 04:18:15;;;;;;;10.67;6.90;;;;;;;;;;5027747;28;20180;-72
2023/06/02 04:20:40;;;;;;;10.10;6.27;;;;;;;;;;5020679;28;20188;-72
2023/06/02 04:23:05;;;;;;;8.00;6.23;;;;;;;;;;5031193;28;20177;-72
2023/06/02 04:25:31;;;;;;;8.70;6.93;;;;;;;;;;5029061;28;20183;-72
2023/06/02 04:27:56;;;;;;;9.03;5.83;;;;;;;;;;5030404;28;20262;-72
2023/06/02 04:30:21;;;;;;;6.93;5.60;;;;;;;;;;5025607;28;20211;-72
2023/06/02 04:32:46;;;;;;;8.13;5.73;;;;;;;;;;5027397;28;20263;-73
2023/06/02 04:35:12;;;;;;;6.33;5.13;;;;;;;;;;5025946;28;20183;-72
2023/06/02 04:37:37;;;;;;;6.77;5.70;;;;;;;;;;5029444;28;20202;-72
2023/06/02 04:40:05;;;;;;;8.10;6.10;;;;;;;;;;5025704;28;20179;-72
2023/06/02 04:42:32;;;;;;;9.10;6.23;;;;;;;;;;5024678;28;20186;-73
2023/06/02 04:45:00;;;;;;;10.43;6.10;;;;;;;;;;5028449;28;20184;-72
2023/06/02 04:47:26;;;;;;;9.20;6.63;;;;;;;;;;5028994;28;20193;-72
2023/06/02 04:49:51;;;;;;;6.73;6.03;;;;;;;;;;5024792;28;20207;-73
2023/06/02 04:52:17;;;;;;;8.97;5.93;;;;;;;;;;5026822;28;20181;-72
2023/06/02 04:54:43;;;;;;;9.30;6.20;;;;;;;;;;5022551;28;20180;-72
2023/06/02 04:57:08;;;;;;;7.53;6.07;;;;;;;;;;5021439;28;20232;-72
2023/06/02 04:59:52;;;;;;;9.90;6.23;;;;;;;;;;5003888;28;20191;-73
2023/06/02 05:02:17;;;;;;;9.70;7.00;;;;;;;;;;5025025;28;20302;-73
2023/06/02 05:04:42;;;;;;;11.23;6.73;;;;;;;;;;5008755;28;20272;-73
2023/06/02 05:07:08;;;;;;;7.90;5.60;;;;;;;;;;5009341;28;20178;-73
2023/06/02 05:09:33;;;;;;;8.37;6.23;;;;;;;;;;5008901;28;20181;-72
2023/06/02 05:11:59;;;;;;;7.87;5.57;;;;;;;;;;5024704;28;20188;-73
2023/06/02 05:14:24;;;;;;;7.63;5.90;;;;;;;;;;5008700;28;20192;-73
2023/06/02 05:16:49;;;;;;;9.30;6.70;;;;;;;;;;5010091;28;20216;-73
2023/06/02 05:19:14;;;;;;;8.03;5.97;;;;;;;;;;5008529;28;20193;-73
2023/06/02 05:21:40;;;;;;;9.73;6.17;;;;;;;;;;5009908;28;20193;-72
2023/06/02 05:24:05;;;;;;;9.63;6.03;;;;;;;;;;5008030;28;20272;-73
2023/06/02 05:26:30;;;;;;;8.57;6.73;;;;;;;;;;5008470;28;20243;-73
2023/06/02 05:28:57;;;;;;;8.23;6.43;;;;;;;;;;5010264;28;20225;-72
2023/06/02 05:31:22;;;;;;;8.73;6.13;;;;;;;;;;5010992;28;20195;-73
2023/06/02 05:33:47;;;;;;;8.43;5.53;;;;;;;;;;5006651;28;20210;-73
2023/06/02 05:36:13;;;;;;;7.83;5.77;;;;;;;;;;5008152;28;20194;-73
2023/06/02 05:38:40;;;;;;;7.20;5.53;;;;;;;;;;5008465;28;20198;-73
2023/06/02 05:41:05;;;;;;;6.17;5.57;;;;;;;;;;5006985;28;20187;-73
2023/06/02 05:43:30;;;;;;;6.63;5.70;;;;;;;;;;5008771;28;20175;-73
2023/06/02 05:45:55;;;;;;;8.73;5.33;;;;;;;;;;5023536;28;20241;-74
2023/06/02 05:48:20;;;;;;;6.87;5.37;;;;;;;;;;5008785;28;20172;-73
2023/06/02 05:50:46;;;;;;;8.77;6.73;;;;;;;;;;5010041;28;20185;-73
2023/06/02 05:53:11;;;;;;;8.27;5.70;;;;;;;;;;5005591;28;20186;-73
2023/06/02 05:55:37;;;;;;;7.07;5.57;;;;;;;;;;5008489;28;20210;-73
2023/06/02 05:58:02;;;;;;;9.57;6.80;;;;;;;;;;5010816;28;20220;-73
2023/06/02 06:00:27;;;;;;;9.43;5.83;;;;;;;;;;5008967;28;20168;-73
2023/06/02 06:02:52;;;;;;;11.50;6.73;;;;;;;;;;5006983;28;20210;-73
2023/06/02 06:05:18;;;;;;;9.23;6.40;;;;;;;;;;5008944;28;20195;-73
2023/06/02 06:07:43;;;;;;;9.33;7.43;;;;;;;;;;5010303;28;20195;-73
2023/06/02 06:10:09;;;;;;;8.13;6.97;;;;;;;;;;5008432;28;20171;-73
2023/06/02 06:12:34;;;;;;;7.60;6.80;;;;;;;;;;5023040;28;20184;-72
2023/06/02 06:15:00;;;;;;;7.50;6.77;;;;;;;;;;5002761;28;20234;-73
2023/06/02 06:17:25;;;;;;;10.80;6.90;;;;;;;;;;5013320;28;20272;-73
2023/06/02 06:19:50;;;;;;;12.67;7.67;;;;;;;;;;5012704;28;20172;-73
2023/06/02 06:22:15;;;;;;;9.47;7.57;;;;;;;;;;5011291;28;20183;-72
2023/06/02 06:24:41;;;;;;;8.13;7.13;;;;;;;;;;5010092;28;20188;-72
2023/06/02 06:27:06;;;;;;;11.60;7.97;;;;;;;;;;5010255;28;20193;-72
2023/06/02 06:29:31;;;;;;;8.23;6.40;;;;;;;;;;5011683;28;20204;-72
2023/06/02 06:31:56;;;;;;;8.03;6.50;;;;;;;;;;5011653;28;20188;-72
2023/06/02 06:34:21;;;;;;;10.47;7.53;;;;;;;;;;5008095;28;20230;-73
2023/06/02 06:36:47;;;;;;;7.83;6.93;;;;;;;;;;5008200;28;20208;-72
2023/06/02 06:39:12;;;;;;;11.77;7.90;;;;;;;;;;5011159;28;20283;-72
2023/06/02 06:41:40;;;;;;;9.63;7.27;;;;;;;;;;5010020;28;20178;-74
2023/06/02 06:44:05;;;;;;;9.17;7.93;;;;;;;;;;5005915;28;20262;-73
2023/06/02 06:46:33;;;;;;;7.43;6.57;;;;;;;;;;5012566;28;20270;-72
2023/06/02 06:48:59;;;;;;;7.77;6.50;;;;;;;;;;5007649;28;20262;-73
2023/06/02 06:51:24;;;;;;;8.87;7.30;;;;;;;;;;5009109;28;20266;-72
2023/06/02 06:53:49;;;;;;;6.50;5.87;;;;;;;;;;5013013;28;20266;-73
2023/06/02 06:56:15;;;;;;;9.23;6.13;;;;;;;;;;5005289;28;20207;-74
2023/06/02 06:58:40;;;;;;;9.37;7.40;;;;;;;;;;5028957;28;20194;-72
2023/06/02 07:01:06;;;;;;;9.03;7.13;;;;;;;;;;5029769;28;20269;-73
2023/06/02 07:03:31;;;;;;;8.77;7.40;;;;;;;;;;5034929;28;20202;-73
2023/06/02 07:05:56;;;;;;;26.30;24.00;;;;;;;;;;5049935;28;20186;-72
2023/06/02 07:08:21;;;;;;;17.10;15.53;;;;;;;;;;5052824;28;20180;-73
2023/06/02 07:10:47;;;;;;;11.67;7.50;;;;;;;;;;5032871;28;20188;-73
2023/06/02 07:13:12;;;;;;;8.03;6.70;;;;;;;;;;5035448;28;20199;-73
2023/06/02 07:15:37;;;;;;;10.57;7.27;;;;;;;;;;5052347;28;20168;-73
2023/06/02 07:18:02;;;;;;;8.87;7.50;;;;;;;;;;5051405;28;20204;-73
2023/06/02 07:20:28;;;;;;;9.67;7.10;;;;;;;;;;5033970;28;20183;-73
2023/06/02 07:22:53;;;;;;;8.90;7.70;;;;;;;;;;5033566;28;20180;-73
2023/06/02 07:25:18;;;;;;;6.93;6.03;;;;;;;;;;5052418;28;20168;-73
2023/06/02 07:27:43;;;;;;;8.17;6.57;;;;;;;;;;5047898;28;20185;-73
2023/06/02 07:30:09;;;;;;;10.20;6.80;;;;;;;;;;5048100;28;20184;-73
2023/06/02 07:32:34;;;;;;;8.30;6.37;;;;;;;;;;5033147;28;20267;-73
2023/06/02 07:34:59;;;;;;;8.47;7.67;;;;;;;;;;5028811;28;20184;-73
2023/06/02 07:37:25;;;;;;;7.33;6.23;;;;;;;;;;5044629;28;20193;-73
2023/06/02 07:39:50;;;;;;;7.93;6.93;;;;;;;;;;5051586;28;20188;-73
2023/06/02 07:42:15;;;;;;;13.93;6.67;;;;;;;;;;5051591;28;20197;-73
2023/06/02 07:44:41;;;;;;;8.70;6.97;;;;;;;;;;5050855;28;20203;-73
2023/06/02 07:47:10;;;;;;;9.33;7.13;;;;;;;;;;5038399;28;20177;-73
2023/06/02 07:49:35;;;;;;;7.00;6.30;;;;;;;;;;5028601;28;20178;-73
2023/06/02 07:52:01;;;;;;;9.07;7.97;;;;;;;;;;5031199;28;20185;-72
2023/06/02 07:54:26;;;;;;;11.37;6.90;;;;;;;;;;5036135;28;20181;-73
2023/06/02 07:56:51;;;;;;;8.10;6.93;;;;;;;;;;5027773;28;20236;-72
2023/06/02 07:59:18;;;;;;;9.63;8.50;;;;;;;;;;5010652;28;20171;-72
2023/06/02 08:01:43;;;;;;;9.83;7.83;;;;;;;;;;5009966;28;20241;-73
2023/06/02 08:04:08;;;;;;;9.43;7.57;;;;;;;;;;5013064;28;20183;-73
2023/06/02 08:06:34;;;;;;;12.20;7.73;;;;;;;;;;5009672;28;20182;-73
2023/06/02 08:09:00;;;;;;;11.33;7.90;;;;;;;;;;5010820;28;20294;-72
2023/06/02 08:11:25;;;;;;;9.50;7.97;;;;;;;;;;5009255;28;20202;-73
2023/06/02 08:13:50;;;;;;;8.57;7.17;;;;;;;;;;5010556;28;20245;-72
2023/06/02 08:16:15;;;;;;;10.33;8.73;;;;;;;;;;5011345;28;20211;-73
2023/06/02 08:18:41;;;;;;;8.73;6.87;;;;;;;;;;5006253;28;20186;-73
2023/06/02 08:21:06;;;;;;;10.30;7.60;;;;;;;;;;5010155;28;20202;-73
2023/06/02 08:23:32;;;;;;;8.00;7.13;;;;;;;;;;5006524;28;20258;-72
2023/06/02 08:25:58;;;;;;;8.20;6.50;;;;;;;;;;5010494;28;20190;-72
2023/06/02 08:28:25;;;;;;;10.00;9.00;;;;;;;;;;5007821;28;20181;-73
2023/06/02 08:30:51;;;;;;;9.03;7.50;;;;;;;;;;5009578;28;20268;-73
2023/06/02 08:33:17;;;;;;;10.17;7.90;;;;;;;;;;5010664;28;20255;-73
2023/06/02 08:35:42;;;;;;;8.50;7.70;;;;;;;;;;5003570;28;20180;-73
2023/06/02 08:38:07;;;;;;;10.73;8.27;;;;;;;;;;5008970;28;20203;-73
2023/06/02 08:40:36;;;;;;;10.50;8.67;;;;;;;;;;5005753;28;20174;-73
2023/06/02 08:43:03;;;;;;;8.83;7.87;;;;;;;;;;5001476;28;20179;-73
2023/06/02 08:45:29;;;;;;;12.90;8.63;;;;;;;;;;5010257;28;20168;-73
2023/06/02 08:47:56;;;;;;;10.43;7.53;;;;;;;;;;5003514;28;20178;-73
2023/06/02 08:50:23;;;;;;;8.83;7.47;;;;;;;;;;5009466;28;20229;-73
2023/06/02 08:52:50;;;;;;;9.60;7.23;;;;;;;;;;5009607;28;20197;-73
2023/06/02 08:55:15;;;;;;;8.90;7.23;;;;;;;;;;5011105;28;20183;-73
2023/06/02 08:57:40;;;;;;;9.37;7.00;;;;;;;;;;5031164;28;20227;-73
2023/06/02 09:00:07;;;;;;;7.90;6.83;;;;;;;;;;5049572;28;20227;-73
2023/06/02 09:02:32;;;;;;;8.50;7.67;;;;;;;;;;5046323;28;20248;-73
2023/06/02 09:04:58;;;;;;;9.60;7.60;;;;;;;;;;5046101;28;20174;-73
2023/06/02 09:07:24;;;;;;;9.17;8.17;;;;;;;;;;5032530;28;20194;-73
2023/06/02 09:09:53;;;;;;;10.83;8.10;;;;;;;;;;5048543;28;20197;-73
2023/06/02 09:12:19;;;;;;;10.57;7.73;;;;;;;;;;5036451;28;20177;-73
2023/06/02 09:14:45;;;;;;;12.93;7.97;;;;;;;;;;5047065;28;20209;-73
2023/06/02 09:17:23;;;;;;;9.27;8.07;;;;;;;;;;5031542;28;20207;-73
2023/06/02 09:19:49;;;;;;;9.07;7.70;;;;;;;;;;5032379;28;20269;-73
2023/06/02 09:22:15;;;;;;;8.27;7.43;;;;;;;;;;5045915;28;20176;-72
2023/06/02 09:24:40;;;;;;;8.93;7.20;;;;;;;;;;5049116;28;20162;-73
2023/06/02 09:27:11;;;;;;;15.43;9.47;;;;;;;;;;5037715;28;20254;-73
2023/06/02 09:29:39;;;;;;;10.07;8.83;;;;;;;;;;5049965;28;20179;-73
2023/06/02 09:32:10;;;;;;;9.57;7.20;;;;;;;;;;5045264;28;20197;-74
2023/06/02 09:34:36;;;;;;;9.03;8.10;;;;;;;;;;5029552;28;20564;-74
2023/06/02 09:37:12;;;;;;;8.70;7.90;;;;;;;;;;5032240;28;20204;-73
2023/06/02 09:39:42;;;;;;;22.30;9.30;;;;;;;;;;5048995;28;20188;-73
2023/06/02 09:42:07;;;;;;;7.97;6.97;;;;;;;;;;5023237;28;20293;-74
2023/06/02 09:44:33;;;;;;;10.50;7.93;;;;;;;;;;5026661;28;20223;-74
2023/06/02 09:46:59;;;;;;;33.50;8.67;;;;;;;;;;5029177;28;20185;-73
2023/06/02 09:49:24;;;;;;;9.70;7.43;;;;;;;;;;5048591;28;20183;-74
2023/06/02 09:51:50;;;;;;;8.53;7.63;;;;;;;;;;5051922;28;20232;-74
2023/06/02 09:54:15;;;;;;;9.43;8.13;;;;;;;;;;5044956;28;20179;-73
2023/06/02 09:56:40;;;;;;;9.80;7.70;;;;;;;;;;5032925;28;20233;-74
2023/06/02 09:59:06;;;;;;;21.20;7.93;;;;;;;;;;5012098;28;20188;-75
2023/06/02 10:01:32;;;;;;;8.13;6.77;;;;;;;;;;5012904;28;20180;-74
2023/06/02 10:03:58;;;;;;;7.47;6.77;;;;;;;;;;5010448;28;20259;-73
2023/06/02 10:06:23;;;;;;;16.97;15.40;;;;;;;;;;5011710;28;20171;-72
2023/06/02 10:09:07;;;;;;;7.83;7.10;;;;;;;;;;5012053;28;20248;-74
2023/06/02 10:11:48;;;;;;;6.97;6.37;;;;;;;;;;5012263;28;20200;-73
2023/06/02 10:14:16;;;;;;;8.57;6.93;;;;;;;;;;5008992;28;20178;-73
2023/06/02 10:16:51;;;;;;;8.13;7.37;;;;;;;;;;5013805;28;20209;-74
2023/06/02 10:19:40;;;;;;;8.47;7.63;;;;;;;;;;5012795;28;20247;-74
2023/06/02 10:22:24;;;;;;;7.43;6.67;;;;;;;;;;5011068;28;20239;-74
2023/06/02 10:25:03;;;;;;;7.73;6.93;;;;;;;;;;5009886;28;20179;-74
2023/06/02 10:27:35;;;;;;;11.33;7.33;;;;;;;;;;5013817;28;20221;-73
2023/06/02 10:30:01;;;;;;;17.47;8.40;;;;;;;;;;5012345;28;20219;-74
2023/06/02 10:32:27;;;;;;;9.17;6.67;;;;;;;;;;5006696;28;20586;-74
2023/06/02 10:34:53;;;;;;;11.80;7.10;;;;;;;;;;5011483;28;20171;-75
2023/06/02 10:37:19;;;;;;;81.27;19.43;;;;;;;;;;5009719;28;20217;-74
2023/06/02 10:39:45;;;;;;;9.67;7.70;;;;;;;;;;5013607;28;20171;-73
2023/06/02 10:42:11;;;;;;;23.33;18.73;;;;;;;;;;5011060;28;20178;-75
2023/06/02 10:44:36;;;;;;;47.53;43.00;;;;;;;;;;5014057;28;20262;-74
2023/06/02 10:47:17;;;;;;;8.10;7.30;;;;;;;;;;5010663;28;20186;-74
2023/06/02 10:49:55;;;;;;;8.73;7.10;;;;;;;;;;5009293;28;20179;-73
2023/06/02 10:52:20;;;;;;;7.53;6.53;;;;;;;;;;5006759;28;20186;-74
2023/06/02 10:55:05;;;;;;;9.03;7.23;;;;;;;;;;5011635;28;20180;-74
2023/06/02 10:57:50;;;;;;;56.97;10.73;;;;;;;;;;5031566;28;20350;-74
2023/06/02 11:00:36;;;;;;;16.40;7.88;;;;;;;;;;5052442;28;20303;-73
2023/06/02 11:03:10;;;;;;;8.93;8.02;;;;;;;;;;5049438;28;20245;-74
2023/06/02 11:05:36;;;;;;;7.85;6.72;;;;;;;;;;5027573;28;20170;-74
2023/06/02 11:08:22;;;;;;;7.25;6.55;;;;;;;;;;5036833;28;20193;-74
2023/06/02 11:10:49;;;;;;;8.82;7.80;;;;;;;;;;5034629;28;20185;-74
2023/06/02 11:13:15;;;;;;;8.95;6.95;;;;;;;;;;5051401;28;20188;-74
2023/06/02 11:15:58;;;;;;;8.48;7.68;;;;;;;;;;5038645;28;20265;-73
2023/06/02 11:18:23;;;;;;;8.35;5.45;;;;;;;;;;5047091;28;20182;-74
2023/06/02 11:20:51;;;;;;;6.90;6.30;;;;;;;;;;5045191;28;20275;-74
2023/06/02 11:23:20;;;;;;;6.18;5.57;;;;;;;;;;5033419;28;20256;-73
2023/06/02 11:25:45;;;;;;;8.23;6.40;;;;;;;;;;5051028;28;20220;-73
2023/06/02 11:28:21;;;;;;;9.55;6.15;;;;;;;;;;5052266;28;20174;-73
2023/06/02 11:31:03;;;;;;;6.47;5.75;;;;;;;;;;5034008;28;20186;-73
2023/06/02 11:33:34;;;;;;;7.47;5.70;;;;;;;;;;5048096;28;20178;-74
2023/06/02 11:36:00;;;;;;;7.80;6.13;;;;;;;;;;5030432;28;20188;-73
2023/06/02 11:38:31;;;;;;;6.30;5.78;;;;;;;;;;5030201;28;20186;-74
2023/06/02 11:41:07;;;;;;;6.93;5.97;;;;;;;;;;5032186;28;20320;-73
2023/06/02 11:43:32;;;;;;;5.22;4.72;;;;;;;;;;5030796;28;20178;-74
2023/06/02 11:46:04;;;;;;;7.15;5.82;;;;;;;;;;5050434;28;20189;-74
2023/06/02 11:48:30;;;;;;;9.30;5.80;;;;;;;;;;5033981;28;20182;-74
2023/06/02 11:50:57;;;;;;;6.30;5.70;;;;;;;;;;5037010;28;20179;-74
2023/06/02 11:53:22;;;;;;;6.93;5.97;;;;;;;;;;5050920;28;20215;-73
2023/06/02 11:55:47;;;;;;;5.85;5.35;;;;;;;;;;5032226;28;20182;-72
2023/06/02 11:58:23;;;;;;;5.97;5.38;;;;;;;;;;5014169;28;20277;-73
2023/06/02 12:00:49;;;;;;;6.85;5.63;;;;;;;;;;5006914;28;20190;-73
2023/06/02 12:03:14;;;;;;;6.25;5.65;;;;;;;;;;5011121;28;20192;-73
2023/06/02 12:05:43;;;;;;;6.07;5.43;;;;;;;;;;5010040;28;20186;-73
2023/06/02 12:08:11;;;;;;;6.72;5.60;;;;;;;;;;4998973;28;20184;-73
2023/06/02 12:10:38;;;;;;;5.95;5.35;;;;;;;;;;5006921;28;20345;-73
2023/06/02 12:13:03;;;;;;;7.63;5.10;;;;;;;;;;5008912;28;20175;-73
2023/06/02 12:15:37;;;;;;;7.53;6.10;;;;;;;;;;5008552;28;20183;-73
2023/06/02 12:18:05;;;;;;;6.25;5.63;;;;;;;;;;5011466;28;20191;-72
2023/06/02 12:20:40;;;;;;;5.32;4.82;;;;;;;;;;5009183;28;20226;-73
2023/06/02 12:23:09;;;;;;;5.45;4.90;;;;;;;;;;5005443;28;20178;-73
2023/06/02 12:25:34;;;;;;;5.10;4.57;;;;;;;;;;5010073;28;20179;-73
2023/06/02 12:28:10;;;;;;;5.55;5.05;;;;;;;;;;5007640;28;20226;-73
2023/06/02 12:30:36;;;;;;;4.97;4.47;;;;;;;;;;5010631;28;20233;-73
2023/06/02 12:33:04;;;;;;;5.75;4.78;;;;;;;;;;5010661;28;20172;-74
2023/06/02 12:35:30;;;;;;;5.75;5.25;;;;;;;;;;5008506;28;20183;-73
2023/06/02 12:37:56;;;;;;;5.80;5.15;;;;;;;;;;5009673;28;20258;-73
2023/06/02 12:40:21;;;;;;;5.57;5.07;;;;;;;;;;5009876;28;20176;-73
2023/06/02 12:42:47;;;;;;;5.20;4.60;;;;;;;;;;5009251;28;20183;-74
2023/06/02 12:45:12;;;;;;;5.65;5.15;;;;;;;;;;5007270;28;20175;-74
2023/06/02 12:47:37;;;;;;;5.22;4.72;;;;;;;;;;5005461;28;20198;-73
2023/06/02 12:50:05;;;;;;;8.35;5.55;;;;;;;;;;5007234;28;20187;-73
2023/06/02 12:52:30;;;;;;;5.18;4.65;;;;;;;;;;5008836;28;20225;-73
2023/06/02 12:54:56;;;;;;;7.30;6.20;;;;;;;;;;5010292;28;20187;-72
2023/06/02 12:57:22;;;;;;;6.63;5.45;;;;;;;;;;4976962;28;1463560;-73
2023/06/02 12:59:47;;;;;;;5.07;4.35;;;;;;;;;;5035245;28;20193;-73
2023/06/02 13:02:13;;;;;;;6.00;5.03;;;;;;;;;;5030196;28;20288;-73
2023/06/02 13:04:38;;;;;;;6.37;4.57;;;;;;;;;;5032312;28;20174;-73
2023/06/02 13:07:06;;;;;;;8.02;4.85;;;;;;;;;;5033122;28;20406;-73
2023/06/02 13:09:31;;;;;;;6.03;5.07;;;;;;;;;;5050496;28;20223;-73
2023/06/02 13:11:56;;;;;;;5.72;5.20;;;;;;;;;;5045506;28;20271;-73
2023/06/02 13:14:22;;;;;;;7.30;5.03;;;;;;;;;;5053596;28;20232;-73
2023/06/02 13:16:48;;;;;;;5.35;4.95;;;;;;;;;;5036297;28;20218;-73
2023/06/02 13:19:13;;;;;;;5.20;4.05;;;;;;;;;;5049237;28;20194;-73
2023/06/02 13:21:40;;;;;;;6.00;5.20;;;;;;;;;;5030582;28;20174;-73
2023/06/02 13:24:06;;;;;;;4.75;4.32;;;;;;;;;;5032645;28;20414;-73
2023/06/02 13:26:31;;;;;;;5.05;4.57;;;;;;;;;;5048038;28;20182;-73
2023/06/02 13:28:56;;;;;;;5.53;4.82;;;;;;;;;;5032774;28;20189;-73
2023/06/02 13:31:21;;;;;;;4.70;4.40;;;;;;;;;;5050270;28;20189;-73
2023/06/02 13:33:47;;;;;;;7.13;4.93;;;;;;;;;;5044671;28;20214;-73
2023/06/02 13:36:13;;;;;;;5.97;4.57;;;;;;;;;;5048328;28;20255;-73
2023/06/02 13:38:39;;;;;;;5.70;4.68;;;;;;;;;;5049634;28;20281;-73
2023/06/02 13:41:05;;;;;;;4.50;4.05;;;;;;;;;;5037168;28;20181;-73
2023/06/02 13:43:30;;;;;;;6.68;4.93;;;;;;;;;;5050342;28;20171;-73
2023/06/02 13:45:55;;;;;;;5.97;4.67;;;;;;;;;;5047432;28;20182;-73
2023/06/02 13:48:20;;;;;;;4.25;3.85;;;;;;;;;;5049193;28;20517;-73
2023/06/02 13:50:46;;;;;;;8.77;5.20;;;;;;;;;;5044943;28;20191;-73
2023/06/02 13:53:11;;;;;;;4.57;3.80;;;;;;;;;;5028656;28;20214;-73
2023/06/02 13:55:36;;;;;;;4.97;4.47;;;;;;;;;;5044160;28;20214;-73
2023/06/02 13:58:01;;;;;;;5.93;4.63;;;;;;;;;;5037752;28;20233;-73
2023/06/02 14:00:26;;;;;;;4.88;4.38;;;;;;;;;;5036338;28;20166;-73
2023/06/02 14:02:52;;;;;;;5.15;4.65;;;;;;;;;;5032480;28;20200;-73
2023/06/02 14:05:17;;;;;;;5.07;4.68;;;;;;;;;;5033385;28;20246;-73
2023/06/02 14:07:42;;;;;;;5.22;4.65;;;;;;;;;;5030721;28;20269;-73
2023/06/02 14:10:08;;;;;;;6.72;4.47;;;;;;;;;;5047993;28;20178;-72
2023/06/02 14:12:33;;;;;;;5.50;4.97;;;;;;;;;;5049074;28;20178;-73
2023/06/02 14:14:58;;;;;;;5.03;4.60;;;;;;;;;;5036985;28;20217;-73
2023/06/02 14:17:24;;;;;;;6.72;4.75;;;;;;;;;;5030695;28;20202;-73
2023/06/02 14:19:49;;;;;;;5.60;4.50;;;;;;;;;;5037392;28;20194;-73
2023/06/02 14:22:14;;;;;;;4.50;4.10;;;;;;;;;;5048084;28;20171;-73
2023/06/02 14:24:39;;;;;;;5.10;4.53;;;;;;;;;;5031898;28;20285;-73
2023/06/02 14:27:05;;;;;;;4.53;4.10;;;;;;;;;;5049381;28;20175;-73
2023/06/02 14:29:30;;;;;;;4.70;4.30;;;;;;;;;;5033690;28;20236;-73
2023/06/02 14:31:55;;;;;;;6.10;4.45;;;;;;;;;;5048122;28;20215;-73
2023/06/02 14:34:20;;;;;;;5.47;4.38;;;;;;;;;;5048467;28;20174;-73
2023/06/02 14:36:46;;;;;;;6.03;4.53;;;;;;;;;;5047541;28;20193;-73